Sweet Home, Arkansas
Current Conditions -  °F | °C
As of 12:53 PM on Friday 28 Nov 2014 (Local Time) from KLIT Reporting Station
Few Clouds Few Clouds  
Wind Chill: 57°   Ceiling: Unl
Heat Index: 57°   Visibility: 10mi
Dew Point: 31°   Wind: 8mph
Humidity: 37%   Direction: 180°S
Pressure: 30.21"   Gusts: NA
Location:  34.69°N, 92.24°W
Report Text: KLIT 281853Z 18007KT 10SM FEW250 14/M01 A3021 RMK AO2 SLP232 P0001 T01391006
Loading
Personal Weather Stations






























Interactive Weather Map New forecast layout! Learn more

10-Day Weather Forecast

Advertisements
Track Severe Weather on mobile